sensor_id;sensor_type;location;lat;lon;timestamp;P1;durP1;ratioP1;P2;durP2;ratioP2
73557;SDS011;61829;53.286;10.434;2022-09-30T00:02:03;8.40;;;4.22;;
73557;SDS011;61829;53.286;10.434;2022-09-30T00:04:29;7.13;;;4.45;;
73557;SDS011;61829;53.286;10.434;2022-09-30T00:06:55;6.95;;;4.05;;
73557;SDS011;61829;53.286;10.434;2022-09-30T00:09:21;6.97;;;4.82;;
73557;SDS011;61829;53.286;10.434;2022-09-30T00:11:47;9.45;;;4.22;;
73557;SDS011;61829;53.286;10.434;2022-09-30T00:14:16;6.30;;;4.03;;
73557;SDS011;61829;53.286;10.434;2022-09-30T00:16:45;6.15;;;3.58;;
73557;SDS011;61829;53.286;10.434;2022-09-30T00:19:12;5.40;;;3.58;;
73557;SDS011;61829;53.286;10.434;2022-09-30T00:21:38;5.85;;;2.80;;
73557;SDS011;61829;53.286;10.434;2022-09-30T00:24:05;5.85;;;3.85;;
73557;SDS011;61829;53.286;10.434;2022-09-30T00:26:31;5.65;;;4.30;;
73557;SDS011;61829;53.286;10.434;2022-09-30T00:28:59;6.80;;;4.15;;
73557;SDS011;61829;53.286;10.434;2022-09-30T00:31:30;8.90;;;4.13;;
73557;SDS011;61829;53.286;10.434;2022-09-30T00:33:57;6.70;;;3.90;;
73557;SDS011;61829;53.286;10.434;2022-09-30T00:36:34;7.88;;;4.68;;
73557;SDS011;61829;53.286;10.434;2022-09-30T00:39:10;8.55;;;4.43;;
73557;SDS011;61829;53.286;10.434;2022-09-30T00:41:39;10.35;;;5.50;;
73557;SDS011;61829;53.286;10.434;2022-09-30T00:49:46;10.05;;;4.60;;
73557;SDS011;61829;53.286;10.434;2022-09-30T00:52:12;10.70;;;4.55;;
73557;SDS011;61829;53.286;10.434;2022-09-30T00:54:39;8.73;;;4.47;;
73557;SDS011;61829;53.286;10.434;2022-09-30T00:57:05;11.40;;;4.72;;
73557;SDS011;61829;53.286;10.434;2022-09-30T00:59:37;7.30;;;3.55;;
73557;SDS011;61829;53.286;10.434;2022-09-30T01:02:09;8.00;;;4.45;;
73557;SDS011;61829;53.286;10.434;2022-09-30T01:07:28;7.47;;;4.43;;
73557;SDS011;61829;53.286;10.434;2022-09-30T01:09:54;8.68;;;4.93;;
73557;SDS011;61829;53.286;10.434;2022-09-30T01:12:21;6.93;;;4.75;;
73557;SDS011;61829;53.286;10.434;2022-09-30T01:14:50;7.88;;;5.15;;
73557;SDS011;61829;53.286;10.434;2022-09-30T01:36:24;6.57;;;4.75;;
73557;SDS011;61829;53.286;10.434;2022-09-30T01:39:08;7.68;;;5.03;;
73557;SDS011;61829;53.286;10.434;2022-09-30T01:41:49;9.30;;;4.97;;
73557;SDS011;61829;53.286;10.434;2022-09-30T01:50:58;6.85;;;4.60;;
73557;SDS011;61829;53.286;10.434;2022-09-30T01:56:12;7.85;;;5.38;;
73557;SDS011;61829;53.286;10.434;2022-09-30T01:58:56;6.70;;;5.03;;
73557;SDS011;61829;53.286;10.434;2022-09-30T02:01:31;7.78;;;5.10;;
73557;SDS011;61829;53.286;10.434;2022-09-30T02:04:04;6.88;;;4.95;;
73557;SDS011;61829;53.286;10.434;2022-09-30T02:06:37;7.55;;;5.30;;
73557;SDS011;61829;53.286;10.434;2022-09-30T02:11:41;6.90;;;4.20;;
73557;SDS011;61829;53.286;10.434;2022-09-30T02:16:48;7.93;;;5.22;;
73557;SDS011;61829;53.286;10.434;2022-09-30T02:22:23;9.25;;;4.47;;
73557;SDS011;61829;53.286;10.434;2022-09-30T02:24:54;6.50;;;4.22;;
73557;SDS011;61829;53.286;10.434;2022-09-30T02:27:24;7.03;;;3.78;;
73557;SDS011;61829;53.286;10.434;2022-09-30T02:29:59;7.15;;;4.55;;
73557;SDS011;61829;53.286;10.434;2022-09-30T02:32:37;8.40;;;5.40;;
73557;SDS011;61829;53.286;10.434;2022-09-30T02:35:06;6.93;;;4.90;;
73557;SDS011;61829;53.286;10.434;2022-09-30T02:38:13;8.75;;;4.72;;
73557;SDS011;61829;53.286;10.434;2022-09-30T02:40:44;7.50;;;4.78;;
73557;SDS011;61829;53.286;10.434;2022-09-30T02:43:14;7.50;;;4.88;;
73557;SDS011;61829;53.286;10.434;2022-09-30T02:45:53;10.45;;;5.28;;
73557;SDS011;61829;53.286;10.434;2022-09-30T02:51:07;8.13;;;5.30;;
73557;SDS011;61829;53.286;10.434;2022-09-30T02:56:53;9.52;;;5.88;;
73557;SDS011;61829;53.286;10.434;2022-09-30T02:59:20;9.23;;;5.75;;
73557;SDS011;61829;53.286;10.434;2022-09-30T03:01:47;9.07;;;5.72;;
73557;SDS011;61829;53.286;10.434;2022-09-30T03:04:15;9.98;;;6.43;;
73557;SDS011;61829;53.286;10.434;2022-09-30T03:06:49;9.38;;;6.05;;
73557;SDS011;61829;53.286;10.434;2022-09-30T03:09:16;9.85;;;6.68;;
73557;SDS011;61829;53.286;10.434;2022-09-30T03:11:42;10.50;;;6.10;;
73557;SDS011;61829;53.286;10.434;2022-09-30T03:14:28;13.57;;;6.13;;
73557;SDS011;61829;53.286;10.434;2022-09-30T03:17:33;9.40;;;6.28;;
73557;SDS011;61829;53.286;10.434;2022-09-30T03:23:08;8.52;;;5.53;;
73557;SDS011;61829;53.286;10.434;2022-09-30T03:28:38;8.00;;;6.00;;
73557;SDS011;61829;53.286;10.434;2022-09-30T03:39:58;10.23;;;6.07;;
73557;SDS011;61829;53.286;10.434;2022-09-30T03:42:40;11.00;;;6.10;;
73557;SDS011;61829;53.286;10.434;2022-09-30T03:49:17;8.70;;;5.95;;
73557;SDS011;61829;53.286;10.434;2022-09-30T03:51:47;9.30;;;6.13;;
73557;SDS011;61829;53.286;10.434;2022-09-30T03:54:13;8.85;;;6.13;;
73557;SDS011;61829;53.286;10.434;2022-09-30T03:56:59;9.60;;;6.72;;
73557;SDS011;61829;53.286;10.434;2022-09-30T03:59:28;10.27;;;6.57;;
73557;SDS011;61829;53.286;10.434;2022-09-30T04:01:57;10.40;;;6.28;;
73557;SDS011;61829;53.286;10.434;2022-09-30T04:04:24;8.68;;;6.40;;
73557;SDS011;61829;53.286;10.434;2022-09-30T04:06:50;8.20;;;5.95;;
73557;SDS011;61829;53.286;10.434;2022-09-30T04:13:03;9.35;;;6.07;;
73557;SDS011;61829;53.286;10.434;2022-09-30T04:15:29;11.93;;;6.50;;
73557;SDS011;61829;53.286;10.434;2022-09-30T04:17:55;12.93;;;6.13;;
73557;SDS011;61829;53.286;10.434;2022-09-30T04:22:48;8.77;;;5.60;;
73557;SDS011;61829;53.286;10.434;2022-09-30T04:25:14;10.15;;;5.80;;
73557;SDS011;61829;53.286;10.434;2022-09-30T04:27:41;7.93;;;5.50;;
73557;SDS011;61829;53.286;10.434;2022-09-30T04:30:07;9.45;;;5.90;;
73557;SDS011;61829;53.286;10.434;2022-09-30T04:32:34;9.27;;;5.85;;
73557;SDS011;61829;53.286;10.434;2022-09-30T04:35:00;7.93;;;5.72;;
73557;SDS011;61829;53.286;10.434;2022-09-30T04:37:26;8.00;;;5.50;;
73557;SDS011;61829;53.286;10.434;2022-09-30T04:39:52;10.98;;;6.80;;
73557;SDS011;61829;53.286;10.434;2022-09-30T04:42:18;11.15;;;6.03;;
73557;SDS011;61829;53.286;10.434;2022-09-30T04:44:44;7.97;;;5.30;;
73557;SDS011;61829;53.286;10.434;2022-09-30T04:47:09;9.35;;;5.75;;
73557;SDS011;61829;53.286;10.434;2022-09-30T04:49:35;7.50;;;5.60;;
73557;SDS011;61829;53.286;10.434;2022-09-30T04:52:01;8.65;;;5.80;;
73557;SDS011;61829;53.286;10.434;2022-09-30T04:54:27;6.95;;;4.93;;
73557;SDS011;61829;53.286;10.434;2022-09-30T04:56:54;8.88;;;5.82;;
73557;SDS011;61829;53.286;10.434;2022-09-30T04:59:19;9.35;;;5.95;;
73557;SDS011;61829;53.286;10.434;2022-09-30T05:01:45;7.18;;;5.03;;
73557;SDS011;61829;53.286;10.434;2022-09-30T05:07:33;8.45;;;5.57;;
73557;SDS011;61829;53.286;10.434;2022-09-30T05:09:59;9.25;;;6.03;;
73557;SDS011;61829;53.286;10.434;2022-09-30T05:12:26;12.55;;;6.32;;
73557;SDS011;61829;53.286;10.434;2022-09-30T05:14:52;11.10;;;5.97;;
73557;SDS011;61829;53.286;10.434;2022-09-30T05:17:18;8.85;;;5.60;;
73557;SDS011;61829;53.286;10.434;2022-09-30T05:19:44;10.25;;;6.35;;
73557;SDS011;61829;53.286;10.434;2022-09-30T05:22:13;9.90;;;5.93;;
73557;SDS011;61829;53.286;10.434;2022-09-30T05:24:39;12.80;;;6.85;;
73557;SDS011;61829;53.286;10.434;2022-09-30T05:27:06;9.75;;;6.40;;
73557;SDS011;61829;53.286;10.434;2022-09-30T05:29:32;12.55;;;7.70;;
73557;SDS011;61829;53.286;10.434;2022-09-30T05:34:51;12.88;;;7.15;;
73557;SDS011;61829;53.286;10.434;2022-09-30T05:37:19;11.50;;;8.10;;
73557;SDS011;61829;53.286;10.434;2022-09-30T05:39:45;13.25;;;8.20;;
73557;SDS011;61829;53.286;10.434;2022-09-30T05:42:11;12.80;;;8.10;;
73557;SDS011;61829;53.286;10.434;2022-09-30T05:44:37;14.90;;;8.77;;
73557;SDS011;61829;53.286;10.434;2022-09-30T05:47:02;13.10;;;8.05;;
73557;SDS011;61829;53.286;10.434;2022-09-30T05:49:29;13.13;;;7.57;;
73557;SDS011;61829;53.286;10.434;2022-09-30T05:52:00;13.75;;;8.68;;
73557;SDS011;61829;53.286;10.434;2022-09-30T05:54:26;14.65;;;9.02;;
73557;SDS011;61829;53.286;10.434;2022-09-30T05:56:52;14.38;;;8.45;;
73557;SDS011;61829;53.286;10.434;2022-09-30T05:59:18;14.23;;;9.18;;
73557;SDS011;61829;53.286;10.434;2022-09-30T06:01:44;15.85;;;9.02;;
73557;SDS011;61829;53.286;10.434;2022-09-30T06:04:10;14.20;;;9.30;;
73557;SDS011;61829;53.286;10.434;2022-09-30T06:06:37;15.23;;;9.50;;
73557;SDS011;61829;53.286;10.434;2022-09-30T06:09:03;13.88;;;9.00;;
73557;SDS011;61829;53.286;10.434;2022-09-30T06:11:30;14.13;;;9.23;;
73557;SDS011;61829;53.286;10.434;2022-09-30T06:13:56;15.55;;;8.77;;
73557;SDS011;61829;53.286;10.434;2022-09-30T06:16:22;16.83;;;9.48;;
73557;SDS011;61829;53.286;10.434;2022-09-30T06:18:49;12.55;;;8.30;;
73557;SDS011;61829;53.286;10.434;2022-09-30T06:21:15;15.52;;;9.10;;
73557;SDS011;61829;53.286;10.434;2022-09-30T06:23:43;16.55;;;9.38;;
73557;SDS011;61829;53.286;10.434;2022-09-30T06:26:10;13.93;;;10.00;;
73557;SDS011;61829;53.286;10.434;2022-09-30T06:28:38;15.63;;;9.88;;
73557;SDS011;61829;53.286;10.434;2022-09-30T06:31:04;14.85;;;9.63;;
73557;SDS011;61829;53.286;10.434;2022-09-30T06:35:57;15.32;;;9.52;;
73557;SDS011;61829;53.286;10.434;2022-09-30T06:38:26;15.63;;;9.55;;
73557;SDS011;61829;53.286;10.434;2022-09-30T06:40:53;16.52;;;9.55;;
73557;SDS011;61829;53.286;10.434;2022-09-30T06:43:21;14.75;;;10.05;;
73557;SDS011;61829;53.286;10.434;2022-09-30T06:45:47;16.55;;;10.63;;
73557;SDS011;61829;53.286;10.434;2022-09-30T06:48:16;15.63;;;10.15;;
73557;SDS011;61829;53.286;10.434;2022-09-30T06:50:42;14.63;;;9.32;;
73557;SDS011;61829;53.286;10.434;2022-09-30T06:53:09;14.38;;;9.10;;
73557;SDS011;61829;53.286;10.434;2022-09-30T06:55:36;13.23;;;8.32;;
73557;SDS011;61829;53.286;10.434;2022-09-30T06:58:04;15.02;;;9.13;;
73557;SDS011;61829;53.286;10.434;2022-09-30T07:00:35;15.35;;;9.65;;
73557;SDS011;61829;53.286;10.434;2022-09-30T07:03:02;15.20;;;8.52;;
73557;SDS011;61829;53.286;10.434;2022-09-30T07:05:30;16.85;;;9.75;;
73557;SDS011;61829;53.286;10.434;2022-09-30T07:07:57;14.63;;;9.15;;
73557;SDS011;61829;53.286;10.434;2022-09-30T07:10:23;14.07;;;9.55;;
73557;SDS011;61829;53.286;10.434;2022-09-30T07:12:50;14.55;;;9.23;;
73557;SDS011;61829;53.286;10.434;2022-09-30T07:15:17;13.65;;;9.25;;
73557;SDS011;61829;53.286;10.434;2022-09-30T07:17:50;15.77;;;10.15;;
73557;SDS011;61829;53.286;10.434;2022-09-30T07:20:17;13.45;;;7.80;;
73557;SDS011;61829;53.286;10.434;2022-09-30T07:22:43;13.20;;;7.78;;
73557;SDS011;61829;53.286;10.434;2022-09-30T07:25:09;12.13;;;8.40;;
73557;SDS011;61829;53.286;10.434;2022-09-30T07:27:36;12.93;;;7.90;;
73557;SDS011;61829;53.286;10.434;2022-09-30T07:30:02;11.93;;;7.85;;
73557;SDS011;61829;53.286;10.434;2022-09-30T07:32:29;9.57;;;6.90;;
73557;SDS011;61829;53.286;10.434;2022-09-30T07:34:55;10.43;;;6.93;;
73557;SDS011;61829;53.286;10.434;2022-09-30T07:37:22;11.77;;;7.15;;
73557;SDS011;61829;53.286;10.434;2022-09-30T07:39:49;11.65;;;7.22;;
73557;SDS011;61829;53.286;10.434;2022-09-30T07:42:16;10.82;;;6.88;;
73557;SDS011;61829;53.286;10.434;2022-09-30T07:44:47;12.82;;;7.03;;
73557;SDS011;61829;53.286;10.434;2022-09-30T07:47:16;9.68;;;7.00;;
73557;SDS011;61829;53.286;10.434;2022-09-30T07:49:42;9.35;;;7.60;;
73557;SDS011;61829;53.286;10.434;2022-09-30T07:52:10;11.93;;;7.07;;
73557;SDS011;61829;53.286;10.434;2022-09-30T07:58:36;9.95;;;7.75;;
73557;SDS011;61829;53.286;10.434;2022-09-30T08:01:03;13.02;;;7.60;;
73557;SDS011;61829;53.286;10.434;2022-09-30T08:03:36;12.15;;;7.85;;
73557;SDS011;61829;53.286;10.434;2022-09-30T08:06:05;11.63;;;8.23;;
73557;SDS011;61829;53.286;10.434;2022-09-30T08:08:36;11.18;;;7.97;;
73557;SDS011;61829;53.286;10.434;2022-09-30T08:11:03;11.43;;;7.80;;
73557;SDS011;61829;53.286;10.434;2022-09-30T08:13:30;12.30;;;7.75;;
73557;SDS011;61829;53.286;10.434;2022-09-30T08:15:56;11.63;;;7.82;;
73557;SDS011;61829;53.286;10.434;2022-09-30T08:18:22;10.63;;;8.63;;
73557;SDS011;61829;53.286;10.434;2022-09-30T08:20:49;11.07;;;7.65;;
73557;SDS011;61829;53.286;10.434;2022-09-30T08:26:17;11.48;;;7.70;;
73557;SDS011;61829;53.286;10.434;2022-09-30T08:31:14;10.23;;;7.82;;
73557;SDS011;61829;53.286;10.434;2022-09-30T08:33:42;11.23;;;7.95;;
73557;SDS011;61829;53.286;10.434;2022-09-30T08:36:13;9.40;;;7.40;;
73557;SDS011;61829;53.286;10.434;2022-09-30T08:38:41;11.65;;;7.28;;
73557;SDS011;61829;53.286;10.434;2022-09-30T08:52:16;10.10;;;7.75;;
73557;SDS011;61829;53.286;10.434;2022-09-30T08:54:47;10.85;;;7.60;;
73557;SDS011;61829;53.286;10.434;2022-09-30T08:57:16;12.10;;;7.70;;
73557;SDS011;61829;53.286;10.434;2022-09-30T09:02:21;10.82;;;8.32;;
73557;SDS011;61829;53.286;10.434;2022-09-30T09:04:48;10.80;;;7.80;;
73557;SDS011;61829;53.286;10.434;2022-09-30T09:16:00;10.40;;;6.72;;
73557;SDS011;61829;53.286;10.434;2022-09-30T09:18:33;10.40;;;6.70;;
73557;SDS011;61829;53.286;10.434;2022-09-30T09:24:00;8.80;;;6.38;;
73557;SDS011;61829;53.286;10.434;2022-09-30T09:26:34;10.15;;;6.57;;
73557;SDS011;61829;53.286;10.434;2022-09-30T09:29:14;9.20;;;5.60;;
73557;SDS011;61829;53.286;10.434;2022-09-30T09:31:47;8.55;;;5.07;;
73557;SDS011;61829;53.286;10.434;2022-09-30T09:34:13;8.68;;;6.03;;
73557;SDS011;61829;53.286;10.434;2022-09-30T09:37:03;8.88;;;5.60;;
73557;SDS011;61829;53.286;10.434;2022-09-30T09:48:08;5.75;;;4.18;;
73557;SDS011;61829;53.286;10.434;2022-09-30T10:01:32;4.53;;;2.67;;
73557;SDS011;61829;53.286;10.434;2022-09-30T10:04:06;3.85;;;2.40;;
73557;SDS011;61829;53.286;10.434;2022-09-30T10:09:40;4.45;;;2.05;;
73557;SDS011;61829;53.286;10.434;2022-09-30T10:18:04;2.72;;;1.88;;
73557;SDS011;61829;53.286;10.434;2022-09-30T10:20:31;4.78;;;2.03;;
73557;SDS011;61829;53.286;10.434;2022-09-30T10:23:08;3.60;;;1.90;;
73557;SDS011;61829;53.286;10.434;2022-09-30T10:25:35;3.95;;;1.75;;
73557;SDS011;61829;53.286;10.434;2022-09-30T10:28:02;3.65;;;1.85;;
73557;SDS011;61829;53.286;10.434;2022-09-30T10:33:15;3.60;;;2.08;;
73557;SDS011;61829;53.286;10.434;2022-09-30T10:36:03;4.13;;;1.80;;
73557;SDS011;61829;53.286;10.434;2022-09-30T10:41:20;2.60;;;1.45;;
73557;SDS011;61829;53.286;10.434;2022-09-30T10:43:50;2.60;;;1.65;;
73557;SDS011;61829;53.286;10.434;2022-09-30T10:46:37;4.07;;;1.65;;
73557;SDS011;61829;53.286;10.434;2022-09-30T10:49:10;2.70;;;1.67;;
73557;SDS011;61829;53.286;10.434;2022-09-30T10:51:55;3.70;;;1.60;;
73557;SDS011;61829;53.286;10.434;2022-09-30T10:57:04;3.33;;;1.77;;
73557;SDS011;61829;53.286;10.434;2022-09-30T10:59:39;2.80;;;1.40;;
73557;SDS011;61829;53.286;10.434;2022-09-30T11:05:29;3.45;;;1.38;;
73557;SDS011;61829;53.286;10.434;2022-09-30T11:07:40;2.30;;;1.50;;
73557;SDS011;61829;53.286;10.434;2022-09-30T11:10:20;3.50;;;1.02;;
73557;SDS011;61829;53.286;10.434;2022-09-30T11:12:59;2.17;;;1.05;;
73557;SDS011;61829;53.286;10.434;2022-09-30T11:15:41;2.70;;;1.17;;
73557;SDS011;61829;53.286;10.434;2022-09-30T11:18:21;3.25;;;1.10;;
73557;SDS011;61829;53.286;10.434;2022-09-30T11:21:15;1.45;;;1.02;;
73557;SDS011;61829;53.286;10.434;2022-09-30T11:34:31;3.95;;;1.60;;
73557;SDS011;61829;53.286;10.434;2022-09-30T11:46:15;1.50;;;1.20;;
73557;SDS011;61829;53.286;10.434;2022-09-30T11:48:51;3.97;;;1.50;;
73557;SDS011;61829;53.286;10.434;2022-09-30T12:00:03;3.50;;;1.42;;
73557;SDS011;61829;53.286;10.434;2022-09-30T12:02:38;5.40;;;1.77;;
73557;SDS011;61829;53.286;10.434;2022-09-30T12:05:10;4.50;;;1.60;;
73557;SDS011;61829;53.286;10.434;2022-09-30T12:07:47;3.33;;;1.42;;
73557;SDS011;61829;53.286;10.434;2022-09-30T12:13:03;4.85;;;1.60;;
73557;SDS011;61829;53.286;10.434;2022-09-30T12:15:40;2.72;;;1.70;;
73557;SDS011;61829;53.286;10.434;2022-09-30T12:18:12;3.60;;;1.90;;
73557;SDS011;61829;53.286;10.434;2022-09-30T12:20:43;3.72;;;1.60;;
73557;SDS011;61829;53.286;10.434;2022-09-30T12:25:59;3.63;;;1.67;;
73557;SDS011;61829;53.286;10.434;2022-09-30T12:28:28;4.15;;;1.70;;
73557;SDS011;61829;53.286;10.434;2022-09-30T12:46:14;2.65;;;1.38;;
73557;SDS011;61829;53.286;10.434;2022-09-30T12:51:21;2.97;;;1.35;;
73557;SDS011;61829;53.286;10.434;2022-09-30T12:54:00;3.58;;;1.60;;
73557;SDS011;61829;53.286;10.434;2022-09-30T12:56:31;3.72;;;1.80;;
73557;SDS011;61829;53.286;10.434;2022-09-30T12:58:59;3.00;;;1.60;;
73557;SDS011;61829;53.286;10.434;2022-09-30T13:01:27;2.55;;;1.70;;
73557;SDS011;61829;53.286;10.434;2022-09-30T13:06:23;3.30;;;1.25;;
73557;SDS011;61829;53.286;10.434;2022-09-30T13:11:33;2.58;;;1.60;;
73557;SDS011;61829;53.286;10.434;2022-09-30T13:35:32;2.38;;;1.33;;
73557;SDS011;61829;53.286;10.434;2022-09-30T13:46:34;3.53;;;1.80;;
73557;SDS011;61829;53.286;10.434;2022-09-30T13:49:02;3.35;;;1.90;;
73557;SDS011;61829;53.286;10.434;2022-09-30T13:51:37;4.90;;;1.60;;
73557;SDS011;61829;53.286;10.434;2022-09-30T13:54:05;2.85;;;1.70;;
73557;SDS011;61829;53.286;10.434;2022-09-30T13:56:38;4.53;;;1.80;;
73557;SDS011;61829;53.286;10.434;2022-09-30T14:10:27;1.98;;;1.40;;
73557;SDS011;61829;53.286;10.434;2022-09-30T14:22:17;2.65;;;1.60;;
73557;SDS011;61829;53.286;10.434;2022-09-30T14:24:45;3.47;;;1.98;;
73557;SDS011;61829;53.286;10.434;2022-09-30T14:27:21;3.17;;;2.00;;
73557;SDS011;61829;53.286;10.434;2022-09-30T14:32:46;3.20;;;1.80;;
73557;SDS011;61829;53.286;10.434;2022-09-30T14:35:25;2.35;;;1.60;;
73557;SDS011;61829;53.286;10.434;2022-09-30T14:37:58;4.45;;;1.80;;
73557;SDS011;61829;53.286;10.434;2022-09-30T14:40:27;4.78;;;1.88;;
73557;SDS011;61829;53.286;10.434;2022-09-30T14:42:59;2.60;;;1.67;;
73557;SDS011;61829;53.286;10.434;2022-09-30T14:45:35;5.50;;;2.08;;
73557;SDS011;61829;53.286;10.434;2022-09-30T14:48:07;5.63;;;2.28;;
73557;SDS011;61829;53.286;10.434;2022-09-30T14:55:55;7.53;;;2.50;;
73557;SDS011;61829;53.286;10.434;2022-09-30T15:01:09;8.10;;;2.83;;
73557;SDS011;61829;53.286;10.434;2022-09-30T15:03:40;10.90;;;2.95;;
73557;SDS011;61829;53.286;10.434;2022-09-30T15:06:17;16.05;;;4.40;;
73557;SDS011;61829;53.286;10.434;2022-09-30T15:08:46;5.10;;;2.50;;
73557;SDS011;61829;53.286;10.434;2022-09-30T15:11:19;3.70;;;2.50;;
73557;SDS011;61829;53.286;10.434;2022-09-30T15:13:56;2.72;;;1.95;;
73557;SDS011;61829;53.286;10.434;2022-09-30T15:16:32;2.67;;;1.90;;
73557;SDS011;61829;53.286;10.434;2022-09-30T15:18:59;4.72;;;2.20;;
73557;SDS011;61829;53.286;10.434;2022-09-30T15:21:25;4.70;;;2.00;;
73557;SDS011;61829;53.286;10.434;2022-09-30T15:23:55;3.42;;;1.75;;
73557;SDS011;61829;53.286;10.434;2022-09-30T15:26:24;3.90;;;1.70;;
73557;SDS011;61829;53.286;10.434;2022-09-30T15:28:51;3.28;;;1.80;;
73557;SDS011;61829;53.286;10.434;2022-09-30T15:31:25;4.75;;;2.03;;
73557;SDS011;61829;53.286;10.434;2022-09-30T15:34:06;3.88;;;1.90;;
73557;SDS011;61829;53.286;10.434;2022-09-30T15:36:39;3.95;;;1.80;;
73557;SDS011;61829;53.286;10.434;2022-09-30T15:39:14;4.60;;;2.20;;
73557;SDS011;61829;53.286;10.434;2022-09-30T15:41:45;5.15;;;1.80;;
73557;SDS011;61829;53.286;10.434;2022-09-30T15:44:14;3.55;;;2.00;;
73557;SDS011;61829;53.286;10.434;2022-09-30T15:46:59;4.53;;;1.98;;
73557;SDS011;61829;53.286;10.434;2022-09-30T15:54:55;3.50;;;1.90;;
73557;SDS011;61829;53.286;10.434;2022-09-30T16:02:57;4.75;;;2.35;;
73557;SDS011;61829;53.286;10.434;2022-09-30T16:05:32;4.40;;;2.25;;
73557;SDS011;61829;53.286;10.434;2022-09-30T16:07:58;4.75;;;2.10;;
73557;SDS011;61829;53.286;10.434;2022-09-30T16:10:25;4.32;;;2.03;;
73557;SDS011;61829;53.286;10.434;2022-09-30T16:12:54;2.63;;;1.80;;
73557;SDS011;61829;53.286;10.434;2022-09-30T16:15:20;3.15;;;1.90;;
73557;SDS011;61829;53.286;10.434;2022-09-30T16:17:47;4.85;;;2.00;;
73557;SDS011;61829;53.286;10.434;2022-09-30T16:27:52;5.43;;;2.30;;
73557;SDS011;61829;53.286;10.434;2022-09-30T16:30:22;4.28;;;2.33;;
73557;SDS011;61829;53.286;10.434;2022-09-30T16:35:21;4.68;;;2.20;;
73557;SDS011;61829;53.286;10.434;2022-09-30T16:37:50;4.03;;;2.17;;
73557;SDS011;61829;53.286;10.434;2022-09-30T16:40:27;6.22;;;2.20;;
73557;SDS011;61829;53.286;10.434;2022-09-30T16:42:55;4.80;;;2.75;;
73557;SDS011;61829;53.286;10.434;2022-09-30T16:45:25;6.28;;;3.45;;
73557;SDS011;61829;53.286;10.434;2022-09-30T16:47:53;4.82;;;3.00;;
73557;SDS011;61829;53.286;10.434;2022-09-30T16:52:47;4.75;;;2.72;;
73557;SDS011;61829;53.286;10.434;2022-09-30T16:55:14;5.10;;;2.60;;
73557;SDS011;61829;53.286;10.434;2022-09-30T16:57:40;4.75;;;2.70;;
73557;SDS011;61829;53.286;10.434;2022-09-30T17:00:06;6.32;;;2.78;;
73557;SDS011;61829;53.286;10.434;2022-09-30T17:02:32;4.63;;;2.60;;
73557;SDS011;61829;53.286;10.434;2022-09-30T17:04:58;5.88;;;2.92;;
73557;SDS011;61829;53.286;10.434;2022-09-30T17:07:24;5.10;;;2.63;;
73557;SDS011;61829;53.286;10.434;2022-09-30T17:09:50;6.13;;;2.90;;
73557;SDS011;61829;53.286;10.434;2022-09-30T17:12:17;6.53;;;3.20;;
73557;SDS011;61829;53.286;10.434;2022-09-30T17:14:42;4.45;;;2.70;;
73557;SDS011;61829;53.286;10.434;2022-09-30T17:17:09;5.55;;;3.05;;
73557;SDS011;61829;53.286;10.434;2022-09-30T17:19:35;6.50;;;3.42;;
73557;SDS011;61829;53.286;10.434;2022-09-30T17:22:02;6.05;;;3.38;;
73557;SDS011;61829;53.286;10.434;2022-09-30T17:24:29;7.70;;;3.80;;
73557;SDS011;61829;53.286;10.434;2022-09-30T17:26:56;4.63;;;3.22;;
73557;SDS011;61829;53.286;10.434;2022-09-30T17:29:23;6.43;;;3.38;;
73557;SDS011;61829;53.286;10.434;2022-09-30T17:31:49;6.90;;;3.42;;
73557;SDS011;61829;53.286;10.434;2022-09-30T17:34:17;5.25;;;3.20;;
73557;SDS011;61829;53.286;10.434;2022-09-30T17:36:43;5.32;;;3.50;;
73557;SDS011;61829;53.286;10.434;2022-09-30T17:39:09;7.43;;;3.65;;
73557;SDS011;61829;53.286;10.434;2022-09-30T17:41:35;7.13;;;4.13;;
73557;SDS011;61829;53.286;10.434;2022-09-30T17:44:20;5.82;;;3.92;;
73557;SDS011;61829;53.286;10.434;2022-09-30T17:46:46;8.25;;;4.68;;
73557;SDS011;61829;53.286;10.434;2022-09-30T17:49:12;7.45;;;4.68;;
73557;SDS011;61829;53.286;10.434;2022-09-30T17:51:42;9.48;;;4.75;;
73557;SDS011;61829;53.286;10.434;2022-09-30T17:54:08;8.55;;;4.55;;
73557;SDS011;61829;53.286;10.434;2022-09-30T17:56:34;7.25;;;4.63;;
73557;SDS011;61829;53.286;10.434;2022-09-30T17:59:02;6.97;;;4.53;;
73557;SDS011;61829;53.286;10.434;2022-09-30T18:01:28;14.38;;;7.65;;
73557;SDS011;61829;53.286;10.434;2022-09-30T18:03:58;10.73;;;6.50;;
73557;SDS011;61829;53.286;10.434;2022-09-30T18:06:26;10.30;;;5.95;;
73557;SDS011;61829;53.286;10.434;2022-09-30T18:08:56;11.50;;;7.20;;
73557;SDS011;61829;53.286;10.434;2022-09-30T18:11:25;17.50;;;8.95;;
73557;SDS011;61829;53.286;10.434;2022-09-30T18:13:54;15.77;;;7.53;;
73557;SDS011;61829;53.286;10.434;2022-09-30T18:16:23;14.18;;;7.57;;
73557;SDS011;61829;53.286;10.434;2022-09-30T18:18:55;11.35;;;6.80;;
73557;SDS011;61829;53.286;10.434;2022-09-30T18:21:35;11.00;;;6.85;;
73557;SDS011;61829;53.286;10.434;2022-09-30T18:24:02;9.45;;;7.13;;
73557;SDS011;61829;53.286;10.434;2022-09-30T18:26:29;10.15;;;6.53;;
73557;SDS011;61829;53.286;10.434;2022-09-30T18:28:56;9.07;;;5.88;;
73557;SDS011;61829;53.286;10.434;2022-09-30T18:31:23;9.65;;;5.45;;
73557;SDS011;61829;53.286;10.434;2022-09-30T18:33:53;10.25;;;6.50;;
73557;SDS011;61829;53.286;10.434;2022-09-30T18:36:20;9.30;;;6.03;;
73557;SDS011;61829;53.286;10.434;2022-09-30T18:38:47;9.75;;;6.65;;
73557;SDS011;61829;53.286;10.434;2022-09-30T18:41:14;13.05;;;7.13;;
73557;SDS011;61829;53.286;10.434;2022-09-30T18:43:41;13.70;;;7.72;;
73557;SDS011;61829;53.286;10.434;2022-09-30T18:46:11;10.95;;;6.15;;
73557;SDS011;61829;53.286;10.434;2022-09-30T18:48:38;11.15;;;6.35;;
73557;SDS011;61829;53.286;10.434;2022-09-30T18:51:05;9.57;;;6.38;;
73557;SDS011;61829;53.286;10.434;2022-09-30T18:53:32;12.82;;;7.45;;
73557;SDS011;61829;53.286;10.434;2022-09-30T18:55:59;11.38;;;7.22;;
73557;SDS011;61829;53.286;10.434;2022-09-30T18:58:26;15.98;;;9.27;;
73557;SDS011;61829;53.286;10.434;2022-09-30T19:00:55;14.05;;;8.38;;
73557;SDS011;61829;53.286;10.434;2022-09-30T19:03:21;13.10;;;7.68;;
73557;SDS011;61829;53.286;10.434;2022-09-30T19:05:47;14.25;;;7.30;;
73557;SDS011;61829;53.286;10.434;2022-09-30T19:08:13;14.30;;;8.05;;
73557;SDS011;61829;53.286;10.434;2022-09-30T19:10:40;14.00;;;7.55;;
73557;SDS011;61829;53.286;10.434;2022-09-30T19:13:07;12.15;;;7.30;;
73557;SDS011;61829;53.286;10.434;2022-09-30T19:15:35;12.40;;;6.53;;
73557;SDS011;61829;53.286;10.434;2022-09-30T19:18:03;9.90;;;6.75;;
73557;SDS011;61829;53.286;10.434;2022-09-30T19:22:59;9.27;;;5.63;;
73557;SDS011;61829;53.286;10.434;2022-09-30T19:25:25;9.18;;;5.43;;
73557;SDS011;61829;53.286;10.434;2022-09-30T19:27:51;8.60;;;5.35;;
73557;SDS011;61829;53.286;10.434;2022-09-30T19:30:18;9.60;;;5.20;;
73557;SDS011;61829;53.286;10.434;2022-09-30T19:32:45;7.60;;;4.78;;
73557;SDS011;61829;53.286;10.434;2022-09-30T19:35:11;7.75;;;5.05;;
73557;SDS011;61829;53.286;10.434;2022-09-30T19:37:39;11.07;;;5.40;;
73557;SDS011;61829;53.286;10.434;2022-09-30T19:40:07;8.82;;;5.60;;
73557;SDS011;61829;53.286;10.434;2022-09-30T19:42:34;8.73;;;5.25;;
73557;SDS011;61829;53.286;10.434;2022-09-30T19:45:03;10.30;;;5.40;;
73557;SDS011;61829;53.286;10.434;2022-09-30T19:47:33;8.77;;;5.32;;
73557;SDS011;61829;53.286;10.434;2022-09-30T19:50:00;9.98;;;5.15;;